DONNELLS (DON)

Elevation: 4835' · STANISLAUS R basin · Operator: US Bureau of Reclamation

Provisional data, subject to change.
Query executed Tuesday at 15:18:48   clock

Select a sensor type for a plot of data.
Note: Reservoir Flows are daily averages.

Earlier

Date STORAGE    RES CHG    OUTFLOW   
 AF   AF   CFS  
08/28/2016 34121 -69 121
08/29/2016 34035 -86 137
08/30/2016 33932 -103 147
08/31/2016 33807 -125 --
09/01/2016 33660 -147 161
09/02/2016 33554 -106 143
09/03/2016 33481 -73 128
09/04/2016 33410 -71 129
09/05/2016 33317 -93 137
09/06/2016 33187 -130 155
09/07/2016 33051 -136 161
09/08/2016 32942 -109 140
09/09/2016 32805 -137 158
09/10/2016 32666 -139 159
09/11/2016 32567 -99 133
09/12/2016 32472 -95 133
09/13/2016 32383 -89 134
09/14/2016 32302 -81 135
09/15/2016 32218 -84 132
09/16/2016 32058 -160 174
09/17/2016 31940 -118 143
09/18/2016 31829 -111 143
09/19/2016 31508 -- 247
09/20/2016 31326 -182 166
09/21/2016 31155 -171 174
09/22/2016 31034 -121 149
09/23/2016 30894 -140 160
09/24/2016 30723 -171 169
09/25/2016 30532 -191 178
09/26/2016 30276 -256 211
09/27/2016 -- -- --

Later | Latest

Warning! This data is preliminary and subject to revision.

Show DON Map | Plot DON Data | 1 Month DON Data | Real-Time DON Data | DON Info